Private Wetterstation Wechselburg
Wetterdaten: Sonntag, 13.07.2014
Datum Zeit Temp. +2m Bodentemp. Temp.+5cm Temp. Wind Windchill X Diff Temp. Feuchte +2m Feuchte +5cm Sonnenschein Luftdruck Regen Wind Richtung Richtung Sonnenschein UV Taupunkt Windchill Windben
13.07.2014 00:00 12,0 C 24,1 C 13,3 C 11,9 C 11,8 C 0,0 C 87 % 88 % 0 % 1009,6 hPa 0,0 l/m 0,0 km/h (0 Bft) S 180 0 min 0,0 UV-I 9,9 C 11,8 C 0,0 km/h (0 Bft)
13.07.2014 00:05 12,0 C 24,1 C 13,1 C 11,9 C 11,8 C 0,0 C 87 % 88 % 0 % 1009,6 hPa 0,0 l/m 0,0 km/h (0 Bft) O-NO 67 0 min 0,0 UV-I 9,9 C 11,8 C 0,0 km/h (0 Bft)
13.07.2014 00:10 11,9 C 24,1 C 13,0 C 11,9 C 11,8 C 0,0 C 87 % 88 % 0 % 1009,6 hPa 0,0 l/m 0,0 km/h (0 Bft) O-NO 67 0 min 0,0 UV-I 9,8 C 11,8 C 1,6 km/h (1 Bft)
13.07.2014 00:15 11,9 C 24,1 C 13,0 C 11,9 C 11,8 C 0,0 C 87 % 88 % 0 % 1009,5 hPa 0,0 l/m 0,2 km/h (0 Bft) O-SO 112 0 min 0,0 UV-I 9,8 C 11,8 C 0,0 km/h (0 Bft)
13.07.2014 00:20 11,7 C 24,1 C 13,1 C 11,8 C 11,8 C 0,1 C 87 % 88 % 0 % 1009,5 hPa 0,0 l/m 0,2 km/h (0 Bft) O-NO 67 0 min 0,0 UV-I 9,6 C 11,8 C 1,9 km/h (1 Bft)
13.07.2014 00:25 11,7 C 24,1 C 12,9 C 11,8 C 11,8 C 0,1 C 88 % 88 % 0 % 1009,5 hPa 0,0 l/m 0,0 km/h (0 Bft) O-NO 67 0 min 0,0 UV-I 9,8 C 11,8 C 0,0 km/h (0 Bft)
13.07.2014 00:30 11,6 C 24,0 C 12,9 C 11,7 C 11,7 C 0,1 C 88 % 88 % 0 % 1009,5 hPa 0,0 l/m 0,0 km/h (0 Bft) O-NO 67 0 min 0,0 UV-I 9,7 C 11,7 C 0,0 km/h (0 Bft)
13.07.2014 00:35 11,7 C 24,0 C 12,8 C 11,6 C 11,5 C 0,0 C 88 % 88 % 0 % 1009,6 hPa 0,0 l/m 0,0 km/h (0 Bft) O 90 0 min 0,0 UV-I 9,8 C 11,5 C 0,0 km/h (0 Bft)
13.07.2014 00:40 11,5 C 24,1 C 12,8 C 11,5 C 11,5 C 0,0 C 88 % 88 % 0 % 1009,6 hPa 0,0 l/m 0,0 km/h (0 Bft) O-NO 67 0 min 0,0 UV-I 9,6 C 11,5 C 0,0 km/h (0 Bft)
13.07.2014 00:45 11,5 C 24,0 C 12,8 C 11,5 C 11,5 C 0,0 C 88 % 88 % 0 % 1009,6 hPa 0,0 l/m 0,0 km/h (0 Bft) SW 225 0 min 0,0 UV-I 9,6 C 11,5 C 0,0 km/h (0 Bft)
13.07.2014 00:50 11,5 C 24,0 C 12,7 C 11,4 C 11,3 C 0,0 C 88 % 88 % 0 % 1009,6 hPa 0,0 l/m 0,0 km/h (0 Bft) SO 135 0 min 0,0 UV-I 9,6 C 11,3 C 0,0 km/h (0 Bft)
13.07.2014 00:55 11,4 C 24,0 C 12,7 C 11,3 C 11,2 C 0,0 C 88 % 88 % 0 % 1009,4 hPa 0,0 l/m 0,0 km/h (0 Bft) S-SW 202 0 min 0,0 UV-I 9,5 C 11,2 C 0,0 km/h (0 Bft)
13.07.2014 01:00 11,2 C 24,0 C 12,6 C 11,2 C 11,2 C 0,0 C 88 % 88 % 0 % 1009,4 hPa 0,0 l/m 0,0 km/h (0 Bft) S-SW 202 0 min 0,0 UV-I 9,3 C 11,2 C 0,0 km/h (0 Bft)
13.07.2014 01:05 11,2 C 24,0 C 12,5 C 11,2 C 11,1 C 0,0 C 88 % 88 % 0 % 1009,4 hPa 0,0 l/m 0,0 km/h (0 Bft) S-SW 202 0 min 0,0 UV-I 9,3 C 11,1 C 0,0 km/h (0 Bft)
13.07.2014 01:10 11,1 C 23,9 C 12,4 C 11,1 C 11,0 C 0,0 C 88 % 89 % 0 % 1009,4 hPa 0,0 l/m 0,0 km/h (0 Bft) W-NW 292 0 min 0,0 UV-I 9,2 C 11,0 C 0,0 km/h (0 Bft)
13.07.2014 01:15 11,1 C 23,9 C 12,5 C 11,1 C 11,1 C 0,0 C 88 % 89 % 0 % 1009,4 hPa 0,0 l/m 0,0 km/h (0 Bft) N 360 0 min 0,0 UV-I 9,2 C 11,1 C 0,0 km/h (0 Bft)
13.07.2014 01:20 11,1 C 24,0 C 12,3 C 11,1 C 11,1 C 0,0 C 88 % 89 % 0 % 1009,4 hPa 0,0 l/m 0,0 km/h (0 Bft) N-NO 22 0 min 0,0 UV-I 9,2 C 11,1 C 0,0 km/h (0 Bft)
13.07.2014 01:25 11,0 C 24,0 C 12,3 C 11,0 C 11,0 C 0,0 C 88 % 89 % 0 % 1009,4 hPa 0,0 l/m 0,0 km/h (0 Bft) N-NO 22 0 min 0,0 UV-I 9,1 C 11,0 C 0,0 km/h (0 Bft)
13.07.2014 01:30 11,0 C 24,0 C 12,4 C 11,1 C 11,1 C 0,1 C 89 % 89 % 0 % 1009,4 hPa 0,0 l/m 0,0 km/h (0 Bft) N-NO 22 0 min 0,0 UV-I 9,3 C 11,1 C 0,0 km/h (0 Bft)
13.07.2014 01:35 11,0 C 24,0 C 12,4 C 11,2 C 11,2 C 0,2 C 89 % 89 % 0 % 1009,1 hPa 0,0 l/m 0,0 km/h (0 Bft) N-NO 22 0 min 0,0 UV-I 9,3 C 11,2 C 0,0 km/h (0 Bft)
13.07.2014 01:40 11,1 C 24,0 C 12,4 C 11,4 C 11,4 C 0,3 C 89 % 89 % 0 % 1009,1 hPa 0,0 l/m 0,0 km/h (0 Bft) W-SW 247 0 min 0,0 UV-I 9,4 C 11,4 C 0,0 km/h (0 Bft)
13.07.2014 01:45 11,0 C 24,0 C 12,4 C 11,4 C 11,4 C 0,4 C 89 % 89 % 0 % 1009,1 hPa 0,0 l/m 0,0 km/h (0 Bft) SW 225 0 min 0,0 UV-I 9,3 C 11,4 C 0,0 km/h (0 Bft)
13.07.2014 01:50 10,9 C 23,9 C 12,3 C 11,2 C 11,2 C 0,3 C 89 % 89 % 0 % 1009,1 hPa 0,0 l/m 0,0 km/h (0 Bft) W 270 0 min 0,0 UV-I 9,2 C 11,2 C 0,0 km/h (0 Bft)
13.07.2014 01:55 10,9 C 23,9 C 12,2 C 11,1 C 11,1 C 0,2 C 89 % 89 % 0 % 1009,4 hPa 0,0 l/m 0,0 km/h (0 Bft) NO 45 0 min 0,0 UV-I 9,2 C 11,1 C 0,0 km/h (0 Bft)
13.07.2014 02:00 10,8 C 23,9 C 12,0 C 11,0 C 11,0 C 0,2 C 89 % 89 % 0 % 1009,4 hPa 0,0 l/m 0,0 km/h (0 Bft) NO 45 0 min 0,0 UV-I 9,1 C 11,0 C 0,0 km/h (0 Bft)
13.07.2014 02:05 10,8 C 23,9 C 12,1 C 11,0 C 11,0 C 0,2 C 89 % 89 % 0 % 1009,4 hPa 0,0 l/m 0,0 km/h (0 Bft) O-NO 67 0 min 0,0 UV-I 9,1 C 11,0 C 0,0 km/h (0 Bft)
13.07.2014 02:10 10,7 C 23,9 C 12,1 C 10,9 C 10,9 C 0,2 C 89 % 89 % 0 % 1009,4 hPa 0,0 l/m 0,0 km/h (0 Bft) N-NW 337 0 min 0,0 UV-I 9,0 C 10,9 C 0,0 km/h (0 Bft)
13.07.2014 02:15 10,7 C 23,9 C 12,0 C 10,8 C 10,8 C 0,1 C 89 % 89 % 0 % 1008,9 hPa 0,0 l/m 0,0 km/h (0 Bft) N-NO 22 0 min 0,0 UV-I 9,0 C 10,8 C 0,0 km/h (0 Bft)
13.07.2014 02:20 10,7 C 23,9 C 12,0 C 10,9 C 10,9 C 0,2 C 89 % 89 % 0 % 1008,9 hPa 0,0 l/m 0,0 km/h (0 Bft) SW 225 0 min 0,0 UV-I 9,0 C 10,9 C 0,0 km/h (0 Bft)
13.07.2014 02:25 10,7 C 23,9 C 12,0 C 10,8 C 10,8 C 0,1 C 89 % 89 % 0 % 1008,9 hPa 0,0 l/m 0,0 km/h (0 Bft) W-SW 247 0 min 0,0 UV-I 9,0 C 10,8 C 0,0 km/h (0 Bft)
13.07.2014 02:30 10,7 C 23,8 C 12,0 C 10,7 C 10,7 C 0,0 C 89 % 89 % 0 % 1008,9 hPa 0,0 l/m 0,0 km/h (0 Bft) N-NW 337 0 min 0,0 UV-I 9,0 C 10,7 C 0,0 km/h (0 Bft)
13.07.2014 02:35 10,6 C 23,8 C 11,9 C 10,7 C 10,7 C 0,1 C 89 % 89 % 0 % 1008,8 hPa 0,0 l/m 0,0 km/h (0 Bft) NO 45 0 min 0,0 UV-I 8,9 C 10,7 C 0,0 km/h (0 Bft)
13.07.2014 02:40 10,4 C 23,8 C 11,9 C 10,6 C 10,6 C 0,2 C 89 % 89 % 0 % 1008,8 hPa 0,0 l/m 0,0 km/h (0 Bft) O 90 0 min 0,0 UV-I 8,7 C 10,6 C 0,0 km/h (0 Bft)
13.07.2014 02:45 10,4 C 23,9 C 11,9 C 10,6 C 10,6 C 0,2 C 89 % 89 % 0 % 1008,8 hPa 0,0 l/m 0,0 km/h (0 Bft) O-SO 112 0 min 0,0 UV-I 8,7 C 10,6 C 0,0 km/h (0 Bft)
13.07.2014 02:50 10,5 C 23,9 C 11,9 C 10,6 C 10,6 C 0,1 C 89 % 89 % 0 % 1008,8 hPa 0,0 l/m 0,0 km/h (0 Bft) S-SW 202 0 min 0,0 UV-I 8,8 C 10,6 C 0,0 km/h (0 Bft)
13.07.2014 02:55 10,5 C 23,8 C 11,8 C 10,6 C 10,6 C 0,1 C 89 % 89 % 0 % 1009,2 hPa 0,0 l/m 0,0 km/h (0 Bft) NW 315 0 min 0,0 UV-I 8,8 C 10,6 C 0,0 km/h (0 Bft)
13.07.2014 03:00 10,3 C 23,8 C 11,7 C 10,5 C 10,5 C 0,2 C 89 % 89 % 0 % 1009,2 hPa 0,0 l/m 0,0 km/h (0 Bft) O 90 0 min 0,0 UV-I 8,6 C 10,5 C 0,0 km/h (0 Bft)
13.07.2014 03:05 10,3 C 23,8 C 11,6 C 10,4 C 10,4 C 0,1 C 89 % 89 % 0 % 1009,2 hPa 0,0 l/m 0,0 km/h (0 Bft) O-SO 112 0 min 0,0 UV-I 8,6 C 10,4 C 0,0 km/h (0 Bft)
13.07.2014 03:10 10,3 C 23,9 C 11,6 C 10,3 C 10,2 C 0,0 C 89 % 89 % 0 % 1009,2 hPa 0,0 l/m 0,0 km/h (0 Bft) W-SW 247 0 min 0,0 UV-I 8,6 C 10,2 C 0,0 km/h (0 Bft)
13.07.2014 03:15 10,2 C 23,8 C 11,5 C 10,2 C 10,1 C 0,0 C 89 % 89 % 0 % 1008,9 hPa 0,0 l/m 0,0 km/h (0 Bft) W-NW 292 0 min 0,0 UV-I 8,5 C 10,1 C 0,0 km/h (0 Bft)
13.07.2014 03:20 10,0 C 23,8 C 11,4 C 10,1 C 10,1 C 0,1 C 89 % 89 % 0 % 1008,9 hPa 0,0 l/m 0,0 km/h (0 Bft) W-NW 292 0 min 0,0 UV-I 8,3 C 10,1 C 0,0 km/h (0 Bft)
13.07.2014 03:25 10,0 C 23,8 C 11,3 C 10,0 C 10,0 C 0,0 C 89 % 89 % 0 % 1008,9 hPa 0,0 l/m 0,0 km/h (0 Bft) S 180 0 min 0,0 UV-I 8,3 C 10,0 C 0,0 km/h (0 Bft)
13.07.2014 03:30 9,9 C 23,9 C 11,3 C 9,9 C 9,9 C 0,0 C 89 % 89 % 0 % 1008,9 hPa 0,0 l/m 0,0 km/h (0 Bft) SW 225 0 min 0,0 UV-I 8,2 C 9,9 C 0,0 km/h (0 Bft)
13.07.2014 03:35 9,9 C 23,8 C 11,2 C 9,9 C 9,9 C 0,0 C 89 % 89 % 0 % 1009,1 hPa 0,0 l/m 0,0 km/h (0 Bft) NW 315 0 min 0,0 UV-I 8,2 C 9,9 C 0,0 km/h (0 Bft)
13.07.2014 03:40 9,9 C 23,8 C 11,2 C 9,9 C 9,8 C 0,0 C 89 % 89 % 0 % 1009,1 hPa 0,0 l/m 0,0 km/h (0 Bft) W-SW 247 0 min 0,0 UV-I 8,2 C 9,8 C 0,0 km/h (0 Bft)
13.07.2014 03:45 9,7 C 23,8 C 11,2 C 9,8 C 9,8 C 0,1 C 89 % 89 % 0 % 1009,1 hPa 0,0 l/m 0,0 km/h (0 Bft) O-NO 67 0 min 0,0 UV-I 8,0 C 9,8 C 0,0 km/h (0 Bft)
13.07.2014 03:50 9,7 C 23,8 C 11,2 C 9,9 C 9,9 C 0,2 C 89 % 89 % 0 % 1009,1 hPa 0,0 l/m 0,0 km/h (0 Bft) O-NO 67 0 min 0,0 UV-I 8,0 C 9,9 C 0,0 km/h (0 Bft)
13.07.2014 03:55 9,7 C 23,8 C 11,3 C 10,0 C 10,0 C 0,3 C 90 % 89 % 0 % 1009,1 hPa 0,0 l/m 0,0 km/h (0 Bft) O-NO 67 0 min 0,0 UV-I 8,1 C 10,0 C 0,0 km/h (0 Bft)
13.07.2014 04:00 9,7 C 23,8 C 11,3 C 10,0 C 10,0 C 0,3 C 90 % 89 % 0 % 1009,1 hPa 0,0 l/m 0,0 km/h (0 Bft) SW 225 0 min 0,0 UV-I 8,1 C 10,0 C 0,0 km/h (0 Bft)
13.07.2014 04:05 9,7 C 23,7 C 11,2 C 9,9 C 9,9 C 0,2 C 90 % 89 % 0 % 1009,1 hPa 0,0 l/m 0,0 km/h (0 Bft) SW 225 0 min 0,0 UV-I 8,1 C 9,9 C 0,0 km/h (0 Bft)
13.07.2014 04:10 9,7 C 23,7 C 11,1 C 9,8 C 9,8 C 0,1 C 90 % 89 % 0 % 1009,1 hPa 0,0 l/m 0,0 km/h (0 Bft) NW 315 0 min 0,0 UV-I 8,1 C 9,8 C 0,0 km/h (0 Bft)
13.07.2014 04:15 9,6 C 23,7 C 11,1 C 9,7 C 9,7 C 0,1 C 90 % 89 % 0 % 1009,1 hPa 0,0 l/m 0,0 km/h (0 Bft) SW 225 0 min 0,0 UV-I 8,0 C 9,7 C 0,0 km/h (0 Bft)
13.07.2014 04:20 9,5 C 23,7 C 11,0 C 9,6 C 9,6 C 0,1 C 90 % 89 % 0 % 1009,1 hPa 0,0 l/m 0,0 km/h (0 Bft) W-SW 247 0 min 0,0 UV-I 7,9 C 9,6 C 0,0 km/h (0 Bft)
13.07.2014 04:25 9,5 C 23,7 C 10,9 C 9,6 C 9,6 C 0,1 C 90 % 89 % 0 % 1009,1 hPa 0,0 l/m 0,0 km/h (0 Bft) W-NW 292 0 min 0,0 UV-I 7,9 C 9,6 C 0,0 km/h (0 Bft)
13.07.2014 04:30 9,5 C 23,6 C 10,8 C 9,5 C 9,5 C 0,0 C 90 % 89 % 0 % 1009,1 hPa 0,0 l/m 0,0 km/h (0 Bft) W 270 0 min 0,0 UV-I 7,9 C 9,5 C 0,0 km/h (0 Bft)
13.07.2014 04:35 9,4 C 23,6 C 10,8 C 9,5 C 9,5 C 0,1 C 90 % 89 % 0 % 1009,2 hPa 0,0 l/m 0,0 km/h (0 Bft) NW 315 0 min 0,0 UV-I 7,8 C 9,5 C 0,0 km/h (0 Bft)
13.07.2014 04:40 9,2 C 23,6 C 10,8 C 9,3 C 9,3 C 0,1 C 90 % 89 % 0 % 1009,2 hPa 0,0 l/m 0,0 km/h (0 Bft) W-SW 247 0 min 0,0 UV-I 7,6 C 9,3 C 0,0 km/h (0 Bft)
13.07.2014 04:45 9,2 C 23,6 C 10,8 C 9,3 C 9,3 C 0,1 C 90 % 89 % 0 % 1009,2 hPa 0,0 l/m 0,0 km/h (0 Bft) SW 225 0 min 0,0 UV-I 7,6 C 9,3 C 0,0 km/h (0 Bft)
13.07.2014 04:50 9,2 C 23,5 C 10,8 C 9,2 C 9,2 C 0,0 C 90 % 89 % 0 % 1009,2 hPa 0,0 l/m 0,0 km/h (0 Bft) W-SW 247 0 min 0,0 UV-I 7,6 C 9,2 C 0,0 km/h (0 Bft)
13.07.2014 04:55 9,2 C 23,6 C 10,7 C 9,2 C 9,2 C 0,0 C 90 % 89 % 0 % 1009,0 hPa 0,0 l/m 0,0 km/h (0 Bft) O-SO 112 0 min 0,0 UV-I 7,6 C 9,2 C 0,0 km/h (0 Bft)
13.07.2014 05:00 9,1 C 23,6 C 10,7 C 9,3 C 9,3 C 0,2 C 90 % 89 % 0 % 1009,0 hPa 0,0 l/m 0,0 km/h (0 Bft) O-NO 67 0 min 0,0 UV-I 7,5 C 9,3 C 0,0 km/h (0 Bft)
13.07.2014 05:05 9,1 C 23,6 C 10,6 C 9,3 C 9,3 C 0,2 C 90 % 89 % 0 % 1009,0 hPa 0,0 l/m 0,0 km/h (0 Bft) O-NO 67 0 min 0,0 UV-I 7,5 C 9,3 C 0,0 km/h (0 Bft)
13.07.2014 05:10 9,3 C 23,6 C 10,7 C 9,3 C 9,3 C 0,0 C 90 % 89 % 0 % 1009,0 hPa 0,0 l/m 0,0 km/h (0 Bft) O 90 0 min 0,0 UV-I 7,7 C 9,3 C 0,0 km/h (0 Bft)
13.07.2014 05:15 9,2 C 23,6 C 10,7 C 9,4 C 9,4 C 0,2 C 90 % 90 % 0 % 1009,0 hPa 0,0 l/m 0,0 km/h (0 Bft) O-NO 67 0 min 0,0 UV-I 7,6 C 9,4 C 0,0 km/h (0 Bft)
13.07.2014 05:20 9,3 C 23,6 C 10,6 C 9,4 C 9,4 C 0,1 C 90 % 90 % 0 % 1009,0 hPa 0,0 l/m 0,0 km/h (0 Bft) NW 315 0 min 0,0 UV-I 7,7 C 9,4 C 0,0 km/h (0 Bft)
13.07.2014 05:25 9,2 C 23,5 C 10,7 C 9,5 C 9,5 C 0,3 C 90 % 89 % 8 % 1009,0 hPa 0,0 l/m 0,0 km/h (0 Bft) NW 315 5 min 0,0 UV-I 7,6 C 9,5 C 0,0 km/h (0 Bft)
13.07.2014 05:30 9,2 C 23,6 C 10,7 C 9,4 C 9,4 C 0,2 C 90 % 90 % 5 % 1009,0 hPa 0,0 l/m 0,0 km/h (0 Bft) NW 315 0 min 0,0 UV-I 7,6 C 9,4 C 0,0 km/h (0 Bft)
13.07.2014 05:35 9,2 C 23,5 C 10,7 C 9,5 C 9,5 C 0,3 C 90 % 90 % 8 % 1008,9 hPa 0,0 l/m 0,0 km/h (0 Bft) W-SW 247 0 min 0,0 UV-I 7,6 C 9,5 C 0,0 km/h (0 Bft)
13.07.2014 05:40 9,1 C 23,5 C 10,7 C 9,5 C 9,5 C 0,4 C 90 % 90 % 11 % 1008,9 hPa 0,0 l/m 0,0 km/h (0 Bft) SW 225 0 min 0,0 UV-I 7,5 C 9,5 C 0,0 km/h (0 Bft)
13.07.2014 05:45 9,1 C 23,5 C 10,8 C 9,6 C 9,6 C 0,5 C 90 % 90 % 13 % 1008,9 hPa 0,0 l/m 0,0 km/h (0 Bft) SW 225 0 min 0,0 UV-I 7,5 C 9,6 C 0,0 km/h (0 Bft)
13.07.2014 05:50 9,1 C 23,4 C 10,7 C 9,6 C 9,6 C 0,5 C 90 % 89 % 13 % 1008,9 hPa 0,0 l/m 0,0 km/h (0 Bft) W-SW 247 0 min 0,0 UV-I 7,5 C 9,6 C 0,0 km/h (0 Bft)
13.07.2014 05:55 9,1 C 23,4 C 10,7 C 9,6 C 9,6 C 0,5 C 90 % 89 % 13 % 1009,2 hPa 0,0 l/m 0,0 km/h (0 Bft) W-SW 247 0 min 0,0 UV-I 7,5 C 9,6 C 0,0 km/h (0 Bft)
13.07.2014 06:00 9,1 C 23,4 C 10,7 C 9,6 C 9,6 C 0,5 C 90 % 89 % 13 % 1009,2 hPa 0,0 l/m 0,0 km/h (0 Bft) W-SW 247 0 min 0,0 UV-I 7,5 C 9,6 C 0,0 km/h (0 Bft)
13.07.2014 06:05 9,1 C 23,4 C 10,7 C 9,6 C 9,6 C 0,5 C 90 % 89 % 13 % 1009,2 hPa 0,0 l/m 0,0 km/h (0 Bft) SW 225 0 min 0,0 UV-I 7,5 C 9,6 C 0,0 km/h (0 Bft)
13.07.2014 06:10 9,1 C 23,4 C 10,8 C 9,6 C 9,6 C 0,5 C 90 % 89 % 13 % 1009,2 hPa 0,0 l/m 0,0 km/h (0 Bft) W-SW 247 0 min 0,0 UV-I 7,5 C 9,6 C 0,0 km/h (0 Bft)
13.07.2014 06:15 9,1 C 23,4 C 10,8 C 9,6 C 9,6 C 0,5 C 90 % 89 % 13 % 1009,1 hPa 0,0 l/m 0,0 km/h (0 Bft) W 270 0 min 0,0 UV-I 7,5 C 9,6 C 0,0 km/h (0 Bft)
13.07.2014 06:20 9,1 C 23,4 C 10,7 C 9,6 C 9,6 C 0,5 C 90 % 89 % 13 % 1009,1 hPa 0,0 l/m 0,0 km/h (0 Bft) NW 315 0 min 0,0 UV-I 7,5 C 9,6 C 0,0 km/h (0 Bft)
13.07.2014 06:25 9,1 C 23,4 C 10,7 C 9,6 C 9,6 C 0,5 C 90 % 89 % 13 % 1009,1 hPa 0,0 l/m 0,0 km/h (0 Bft) NW 315 0 min 0,0 UV-I 7,5 C 9,6 C 0,0 km/h (0 Bft)
13.07.2014 06:30 9,0 C 23,4 C 10,7 C 9,7 C 9,7 C 0,7 C 91 % 89 % 18 % 1009,1 hPa 0,0 l/m 0,0 km/h (0 Bft) NO 45 0 min 0,0 UV-I 7,6 C 9,7 C 0,0 km/h (0 Bft)
13.07.2014 06:35 9,1 C 23,4 C 10,7 C 9,9 C 9,9 C 0,8 C 91 % 89 % 21 % 1008,8 hPa 0,0 l/m 0,0 km/h (0 Bft) W 270 0 min 0,0 UV-I 7,7 C 9,9 C 0,0 km/h (0 Bft)
13.07.2014 06:40 9,2 C 23,3 C 10,9 C 10,1 C 10,1 C 0,9 C 91 % 89 % 24 % 1008,8 hPa 0,0 l/m 0,0 km/h (0 Bft) NW 315 0 min 0,0 UV-I 7,8 C 10,1 C 0,0 km/h (0 Bft)
13.07.2014 06:45 9,2 C 23,3 C 11,1 C 10,3 C 10,3 C 1,1 C 91 % 89 % 29 % 1008,8 hPa 0,0 l/m 0,0 km/h (0 Bft) W-NW 292 0 min 0,0 UV-I 7,8 C 10,3 C 0,0 km/h (0 Bft)
13.07.2014 06:50 9,3 C 23,3 C 11,3 C 10,6 C 10,6 C 1,3 C 91 % 90 % 34 % 1008,8 hPa 0,0 l/m 0,0 km/h (0 Bft) W-SW 247 0 min 0,0 UV-I 7,9 C 10,6 C 0,0 km/h (0 Bft)
13.07.2014 06:55 9,4 C 23,3 C 11,3 C 10,8 C 10,8 C 1,4 C 91 % 90 % 37 % 1009,0 hPa 0,0 l/m 0,0 km/h (0 Bft) W-NW 292 0 min 0,0 UV-I 8,0 C 10,8 C 0,0 km/h (0 Bft)
13.07.2014 07:00 9,6 C 23,3 C 11,8 C 11,1 C 11,1 C 1,5 C 91 % 90 % 39 % 1009,0 hPa 0,0 l/m 0,0 km/h (0 Bft) W-SW 247 0 min 0,0 UV-I 8,2 C 11,1 C 0,0 km/h (0 Bft)
13.07.2014 07:05 9,8 C 23,3 C 12,1 C 11,6 C 11,6 C 1,8 C 91 % 90 % 47 % 1009,0 hPa 0,0 l/m 0,0 km/h (0 Bft) W 270 0 min 0,0 UV-I 8,4 C 11,6 C 0,0 km/h (0 Bft)
13.07.2014 07:10 10,0 C 23,2 C 12,4 C 14,7 C 14,7 C 4,7 C 92 % 90 % 100 % 1009,0 hPa 0,0 l/m 0,0 km/h (0 Bft) S 180 5 min 0,0 UV-I 8,8 C 14,7 C 0,0 km/h (0 Bft)
13.07.2014 07:15 10,1 C 23,2 C 12,5 C 16,3 C 16,3 C 6,2 C 92 % 90 % 100 % 1008,9 hPa 0,0 l/m 0,0 km/h (0 Bft) W-SW 247 5 min 0,0 UV-I 8,9 C 16,3 C 0,0 km/h (0 Bft)
13.07.2014 07:20 10,8 C 23,2 C 13,1 C 17,7 C 17,7 C 6,9 C 92 % 90 % 100 % 1008,9 hPa 0,0 l/m 0,0 km/h (0 Bft) SW 225 5 min 0,0 UV-I 9,6 C 17,7 C 0,0 km/h (0 Bft)
13.07.2014 07:25 11,2 C 23,2 C 13,2 C 18,8 C 18,8 C 7,6 C 92 % 89 % 100 % 1008,9 hPa 0,0 l/m 0,0 km/h (0 Bft) W-SW 247 5 min 0,0 UV-I 9,9 C 18,8 C 0,0 km/h (0 Bft)
13.07.2014 07:30 11,5 C 23,2 C 13,2 C 18,1 C 18,1 C 6,6 C 92 % 89 % 100 % 1008,9 hPa 0,0 l/m 0,0 km/h (0 Bft) SW 225 5 min 0,0 UV-I 10,2 C 18,1 C 0,0 km/h (0 Bft)
13.07.2014 07:35 11,7 C 23,2 C 13,3 C 17,6 C 17,6 C 5,9 C 92 % 89 % 100 % 1008,8 hPa 0,0 l/m 0,0 km/h (0 Bft) N-NO 22 5 min 0,0 UV-I 10,4 C 17,6 C 0,0 km/h (0 Bft)
13.07.2014 07:40 12,1 C 23,0 C 13,6 C 17,8 C 17,8 C 5,7 C 93 % 89 % 100 % 1008,8 hPa 0,0 l/m 0,0 km/h (0 Bft) N-NW 337 5 min 0,0 UV-I 11,0 C 17,8 C 0,0 km/h (0 Bft)
13.07.2014 07:45 12,3 C 23,0 C 13,9 C 19,7 C 19,7 C 7,4 C 93 % 89 % 100 % 1008,8 hPa 0,0 l/m 0,0 km/h (0 Bft) W-SW 247 5 min 0,0 UV-I 11,2 C 19,7 C 0,0 km/h (0 Bft)
13.07.2014 07:50 12,8 C 23,0 C 14,2 C 22,0 C 22,0 C 9,2 C 93 % 89 % 100 % 1008,8 hPa 0,0 l/m 0,0 km/h (0 Bft) SW 225 5 min 0,0 UV-I 11,7 C 22,0 C 0,0 km/h (0 Bft)
13.07.2014 07:55 12,9 C 23,0 C 14,1 C 21,6 C 21,6 C 8,7 C 93 % 89 % 100 % 1008,8 hPa 0,0 l/m 0,0 km/h (0 Bft) S 180 5 min 0,0 UV-I 11,8 C 21,6 C 0,0 km/h (0 Bft)
13.07.2014 08:00 13,3 C 23,0 C 14,3 C 21,9 C 21,9 C 8,6 C 93 % 89 % 100 % 1008,8 hPa 0,0 l/m 0,0 km/h (0 Bft) W 270 5 min 0,0 UV-I 12,2 C 21,9 C 2,6 km/h (1 Bft)
13.07.2014 08:05 13,5 C 23,0 C 14,5 C 22,3 C 22,3 C 8,8 C 93 % 88 % 100 % 1008,8 hPa 0,0 l/m 0,2 km/h (0 Bft) W 270 5 min 0,0 UV-I 12,4 C 22,3 C 0,0 km/h (0 Bft)
13.07.2014 08:10 14,1 C 23,0 C 14,7 C 24,2 C 24,2 C 10,1 C 93 % 88 % 100 % 1008,8 hPa 0,0 l/m 0,2 km/h (0 Bft) W-SW 247 5 min 0,0 UV-I 13,0 C 24,2 C 0,0 km/h (0 Bft)
13.07.2014 08:15 14,2 C 23,0 C 14,7 C 24,4 C 24,4 C 10,2 C 93 % 88 % 100 % 1008,4 hPa 0,0 l/m 0,0 km/h (0 Bft) SW 225 5 min 0,0 UV-I 13,1 C 24,4 C 0,0 km/h (0 Bft)
13.07.2014 08:20 14,8 C 23,0 C 15,0 C 25,7 C 25,7 C 10,9 C 92 % 88 % 100 % 1008,4 hPa 0,0 l/m 0,2 km/h (0 Bft) SW 225 5 min 0,0 UV-I 13,5 C 25,7 C 0,0 km/h (0 Bft)
13.07.2014 08:25 15,3 C 23,0 C 15,2 C 26,4 C 26,4 C 11,1 C 92 % 88 % 100 % 1008,4 hPa 0,0 l/m 0,2 km/h (0 Bft) W-SW 247 5 min 0,0 UV-I 14,0 C 26,4 C 0,0 km/h (0 Bft)
13.07.2014 08:30 15,7 C 23,0 C 15,6 C 27,5 C 27,5 C 11,8 C 92 % 88 % 100 % 1008,4 hPa 0,0 l/m 0,0 km/h (0 Bft) SO 135 5 min 0,0 UV-I 14,4 C 27,5 C 0,0 km/h (0 Bft)
13.07.2014 08:35 15,9 C 23,0 C 15,9 C 28,5 C 28,5 C 12,6 C 91 % 88 % 100 % 1008,4 hPa 0,0 l/m 0,0 km/h (0 Bft) SW 225 5 min 0,0 UV-I 14,4 C 28,5 C 0,0 km/h (0 Bft)
13.07.2014 08:40 16,3 C 23,0 C 16,3 C 25,8 C 25,8 C 9,5 C 89 % 87 % 100 % 1008,4 hPa 0,0 l/m 0,2 km/h (0 Bft) NO 45 5 min 0,0 UV-I 14,5 C 25,8 C 2,9 km/h (1 Bft)
13.07.2014 08:45 16,5 C 23,0 C 16,3 C 24,1 C 24,1 C 7,6 C 89 % 87 % 100 % 1008,4 hPa 0,0 l/m 0,2 km/h (0 Bft) NO 45 5 min 0,0 UV-I 14,7 C 24,1 C 0,0 km/h (0 Bft)
13.07.2014 08:50 16,7 C 22,9 C 16,4 C 22,7 C 22,7 C 6,0 C 88 % 87 % 100 % 1008,4 hPa 0,0 l/m 0,0 km/h (0 Bft) N-NO 22 5 min 0,0 UV-I 14,7 C 22,7 C 0,0 km/h (0 Bft)
13.07.2014 08:55 16,8 C 22,9 C 16,5 C 22,2 C 22,2 C 5,4 C 87 % 87 % 100 % 1008,5 hPa 0,0 l/m 0,0 km/h (0 Bft) W 270 5 min 0,0 UV-I 14,6 C 22,2 C 0,0 km/h (0 Bft)
13.07.2014 09:00 17,5 C 22,8 C 16,8 C 22,6 C 22,6 C 5,1 C 85 % 86 % 100 % 1008,5 hPa 0,0 l/m 0,0 km/h (0 Bft) NW 315 5 min 0,0 UV-I 14,9 C 22,6 C 0,0 km/h (0 Bft)
13.07.2014 09:05 17,9 C 22,8 C 16,9 C 23,9 C 23,9 C 6,0 C 84 % 86 % 100 % 1008,5 hPa 0,0 l/m 0,0 km/h (0 Bft) W 270 5 min 0,0 UV-I 15,2 C 23,9 C 0,0 km/h (0 Bft)
13.07.2014 09:10 18,4 C 22,8 C 17,0 C 24,4 C 24,4 C 6,0 C 82 % 86 % 100 % 1008,5 hPa 0,0 l/m 0,0 km/h (0 Bft) S-SW 202 5 min 0,0 UV-I 15,3 C 24,4 C 0,0 km/h (0 Bft)
13.07.2014 09:15 18,7 C 22,8 C 17,1 C 23,9 C 23,9 C 5,2 C 80 % 85 % 100 % 1008,5 hPa 0,0 l/m 0,2 km/h (0 Bft) W 270 5 min 0,0 UV-I 15,2 C 23,9 C 0,0 km/h (0 Bft)
13.07.2014 09:20 18,9 C 22,8 C 17,2 C 23,1 C 23,1 C 4,2 C 79 % 85 % 100 % 1008,5 hPa 0,0 l/m 0,5 km/h (0 Bft) S-SO 157 5 min 0,0 UV-I 15,2 C 23,1 C 4,8 km/h (1 Bft)
13.07.2014 09:25 19,0 C 22,8 C 17,4 C 22,7 C 22,7 C 3,7 C 78 % 85 % 97 % 1008,5 hPa 0,0 l/m 0,6 km/h (0 Bft) S 180 5 min 0,0 UV-I 15,1 C 22,7 C 0,0 km/h (0 Bft)
13.07.2014 09:30 19,2 C 22,8 C 17,6 C 22,2 C 22,2 C 3,0 C 76 % 84 % 79 % 1008,5 hPa 0,0 l/m 1,3 km/h (1 Bft) W-SW 247 0 min 0,0 UV-I 14,9 C 22,2 C 2,1 km/h (1 Bft)
13.07.2014 09:35 19,2 C 22,9 C 17,6 C 22,0 C 22,0 C 2,8 C 76 % 84 % 74 % 1009,1 hPa 0,0 l/m 1,8 km/h (1 Bft) W 270 0 min 0,0 UV-I 14,9 C 22,0 C 3,9 km/h (1 Bft)
13.07.2014 09:40 19,2 C 22,9 C 17,9 C 22,8 C 22,8 C 3,6 C 76 % 83 % 95 % 1009,1 hPa 0,0 l/m 1,3 km/h (1 Bft) S-SO 157 5 min 0,0 UV-I 14,9 C 22,8 C 2,3 km/h (1 Bft)
13.07.2014 09:45 19,4 C 22,9 C 18,1 C 24,6 C 24,6 C 5,2 C 76 % 83 % 100 % 1009,1 hPa 0,0 l/m 1,4 km/h (1 Bft) SO 135 5 min 0,0 UV-I 15,1 C 24,6 C 2,3 km/h (1 Bft)
13.07.2014 09:50 19,6 C 22,9 C 18,3 C 24,6 C 24,6 C 5,0 C 73 % 82 % 100 % 1009,1 hPa 0,0 l/m 1,9 km/h (1 Bft) SW 225 5 min 0,0 UV-I 14,6 C 24,6 C 5,0 km/h (1 Bft)
13.07.2014 09:55 19,6 C 22,9 C 18,2 C 24,1 C 24,1 C 4,5 C 73 % 82 % 100 % 1008,5 hPa 0,0 l/m 1,8 km/h (1 Bft) S-SO 157 5 min 0,0 UV-I 14,6 C 24,1 C 0,0 km/h (0 Bft)
13.07.2014 10:00 19,8 C 22,9 C 18,3 C 23,7 C 23,7 C 3,9 C 73 % 80 % 100 % 1008,5 hPa 0,0 l/m 0,8 km/h (0 Bft) SO 135 5 min 0,0 UV-I 14,8 C 23,7 C 0,0 km/h (0 Bft)
13.07.2014 10:05 19,8 C 22,9 C 18,4 C 23,7 C 23,7 C 3,9 C 73 % 81 % 100 % 1008,5 hPa 0,0 l/m 0,3 km/h (0 Bft) W 270 5 min 0,0 UV-I 14,8 C 23,7 C 0,0 km/h (0 Bft)
13.07.2014 10:10 20,1 C 22,9 C 18,5 C 23,7 C 23,7 C 3,6 C 72 % 80 % 95 % 1008,5 hPa 0,0 l/m 0,6 km/h (0 Bft) SW 225 5 min 0,0 UV-I 14,9 C 23,7 C 6,1 km/h (2 Bft)
13.07.2014 10:15 20,0 C 22,9 C 18,5 C 23,5 C 23,5 C 3,5 C 72 % 80 % 92 % 1007,7 hPa 0,0 l/m 0,8 km/h (0 Bft) W-SW 247 5 min 0,0 UV-I 14,8 C 23,5 C 2,1 km/h (1 Bft)
13.07.2014 10:20 20,3 C 22,9 C 18,7 C 23,6 C 23,6 C 3,3 C 71 % 80 % 87 % 1007,7 hPa 0,0 l/m 0,6 km/h (0 Bft) W 270 5 min 0,0 UV-I 14,9 C 23,6 C 2,9 km/h (1 Bft)
13.07.2014 10:25 20,4 C 22,9 C 18,7 C 23,5 C 23,5 C 3,1 C 71 % 80 % 82 % 1007,7 hPa 0,0 l/m 0,6 km/h (0 Bft) NO 45 0 min 0,0 UV-I 15,0 C 23,5 C 0,0 km/h (0 Bft)
13.07.2014 10:30 20,6 C 22,9 C 18,8 C 23,7 C 23,7 C 3,1 C 71 % 80 % 82 % 1007,7 hPa 0,0 l/m 0,5 km/h (0 Bft) O 90 0 min 0,0 UV-I 15,2 C 23,7 C 0,0 km/h (0 Bft)
13.07.2014 10:35 20,7 C 22,9 C 18,9 C 23,6 C 23,6 C 2,9 C 71 % 79 % 76 % 1008,2 hPa 0,0 l/m 0,3 km/h (0 Bft) W-SW 247 0 min 0,0 UV-I 15,2 C 23,6 C 0,0 km/h (0 Bft)
13.07.2014 10:40 20,7 C 22,9 C 18,9 C 23,5 C 23,5 C 2,8 C 69 % 79 % 74 % 1008,2 hPa 0,0 l/m 0,6 km/h (0 Bft) S 180 0 min 0,0 UV-I 14,8 C 23,5 C 1,6 km/h (1 Bft)
13.07.2014 10:45 20,6 C 22,9 C 19,0 C 23,5 C 23,5 C 2,9 C 69 % 78 % 76 % 1008,2 hPa 0,0 l/m 0,8 km/h (0 Bft) W-SW 247 0 min 0,0 UV-I 14,7 C 23,5 C 0,0 km/h (0 Bft)
13.07.2014 10:50 20,7 C 22,8 C 19,2 C 24,1 C 24,1 C 3,4 C 69 % 78 % 89 % 1008,2 hPa 0,0 l/m 0,5 km/h (0 Bft) S-SO 157 5 min 0,0 UV-I 14,8 C 24,1 C 0,0 km/h (0 Bft)
13.07.2014 10:55 20,7 C 22,8 C 19,2 C 24,2 C 24,2 C 3,5 C 69 % 78 % 92 % 1007,9 hPa 0,0 l/m 0,5 km/h (0 Bft) W 270 5 min 0,0 UV-I 14,8 C 24,2 C 0,0 km/h (0 Bft)
13.07.2014 11:00 20,9 C 22,9 C 19,3 C 24,7 C 24,7 C 3,8 C 67 % 77 % 100 % 1007,9 hPa 0,0 l/m 1,1 km/h (1 Bft) W-NW 292 5 min 0,0 UV-I 14,5 C 24,7 C 4,8 km/h (1 Bft)
13.07.2014 11:05 20,8 C 22,9 C 19,3 C 24,9 C 24,9 C 4,1 C 67 % 77 % 100 % 1007,9 hPa 0,0 l/m 1,8 km/h (1 Bft) SW 225 5 min 0,0 UV-I 14,4 C 24,9 C 4,2 km/h (1 Bft)
13.07.2014 11:10 20,7 C 22,9 C 19,3 C 26,0 C 26,0 C 5,3 C 66 % 77 % 100 % 1007,9 hPa 0,0 l/m 2,9 km/h (1 Bft) W-SW 247 5 min 0,0 UV-I 14,1 C 26,0 C 6,8 km/h (2 Bft)
13.07.2014 11:15 20,7 C 22,9 C 19,3 C 26,5 C 26,5 C 5,8 C 66 % 77 % 100 % 1007,9 hPa 0,0 l/m 2,9 km/h (1 Bft) W 270 5 min 0,0 UV-I 14,1 C 26,5 C 3,9 km/h (1 Bft)
13.07.2014 11:20 20,6 C 22,9 C 19,2 C 26,8 C 26,8 C 6,2 C 65 % 76 % 100 % 1007,9 hPa 0,0 l/m 3,9 km/h (1 Bft) SW 225 5 min 0,0 UV-I 13,8 C 26,8 C 10,9 km/h (2 Bft)
13.07.2014 11:25 20,7 C 22,9 C 19,3 C 27,0 C 27,0 C 6,3 C 65 % 76 % 100 % 1007,9 hPa 0,0 l/m 4,0 km/h (1 Bft) S 180 5 min 0,0 UV-I 13,9 C 27,0 C 4,8 km/h (1 Bft)
13.07.2014 11:30 20,6 C 22,9 C 19,3 C 27,1 C 27,1 C 6,5 C 64 % 76 % 100 % 1007,9 hPa 0,0 l/m 3,2 km/h (1 Bft) W 270 5 min 0,0 UV-I 13,5 C 27,1 C 3,1 km/h (1 Bft)
13.07.2014 11:35 20,6 C 22,9 C 19,2 C 25,9 C 25,9 C 5,3 C 63 % 75 % 100 % 1007,8 hPa 0,0 l/m 3,2 km/h (1 Bft) S 180 5 min 0,0 UV-I 13,3 C 25,9 C 5,1 km/h (1 Bft)
13.07.2014 11:40 20,7 C 23,0 C 19,2 C 25,8 C 25,8 C 5,1 C 62 % 74 % 100 % 1007,8 hPa 0,0 l/m 3,1 km/h (1 Bft) S 180 5 min 0,0 UV-I 13,2 C 25,8 C 3,4 km/h (1 Bft)
13.07.2014 11:45 20,9 C 23,0 C 19,5 C 26,7 C 26,7 C 5,8 C 64 % 75 % 100 % 1007,8 hPa 0,0 l/m 2,4 km/h (1 Bft) W-SW 247 5 min 0,0 UV-I 13,8 C 26,7 C 0,0 km/h (0 Bft)
13.07.2014 11:50 21,1 C 23,0 C 19,5 C 26,8 C 26,8 C 5,7 C 62 % 74 % 100 % 1007,8 hPa 0,0 l/m 2,4 km/h (1 Bft) S 180 5 min 0,0 UV-I 13,5 C 26,8 C 5,5 km/h (1 Bft)
13.07.2014 11:55 21,1 C 23,0 C 19,7 C 27,3 C 27,3 C 6,2 C 61 % 73 % 100 % 1007,7 hPa 0,0 l/m 2,9 km/h (1 Bft) S 180 5 min 0,0 UV-I 13,3 C 27,3 C 0,0 km/h (0 Bft)
13.07.2014 12:00 21,5 C 22,9 C 20,1 C 28,7 C 28,7 C 7,2 C 61 % 70 % 100 % 1007,7 hPa 0,0 l/m 2,1 km/h (1 Bft) NW 315 5 min 0,0 UV-I 13,7 C 28,7 C 2,1 km/h (1 Bft)
13.07.2014 12:05 21,6 C 22,9 C 20,3 C 29,2 C 29,2 C 7,6 C 59 % 70 % 100 % 1007,7 hPa 0,0 l/m 1,4 km/h (1 Bft) W 270 5 min 0,0 UV-I 13,2 C 29,2 C 2,3 km/h (1 Bft)
13.07.2014 12:10 21,9 C 22,9 C 20,4 C 29,7 C 29,7 C 7,8 C 59 % 70 % 100 % 1007,7 hPa 0,0 l/m 1,6 km/h (1 Bft) S-SO 157 5 min 0,0 UV-I 13,5 C 29,7 C 7,1 km/h (2 Bft)
13.07.2014 12:15 22,0 C 22,9 C 20,4 C 29,2 C 29,2 C 7,2 C 57 % 70 % 100 % 1008,2 hPa 0,0 l/m 2,6 km/h (1 Bft) S-SO 157 5 min 0,0 UV-I 13,1 C 29,2 C 1,8 km/h (1 Bft)
13.07.2014 12:20 22,1 C 23,0 C 20,4 C 27,3 C 27,3 C 5,2 C 55 % 69 % 100 % 1008,2 hPa 0,0 l/m 3,5 km/h (1 Bft) SW 225 5 min 0,0 UV-I 12,6 C 27,3 C 7,7 km/h (2 Bft)
13.07.2014 12:25 22,0 C 23,0 C 20,3 C 26,7 C 26,7 C 4,7 C 54 % 68 % 100 % 1008,2 hPa 0,0 l/m 3,7 km/h (1 Bft) W-SW 247 5 min 0,0 UV-I 12,3 C 26,7 C 6,1 km/h (2 Bft)
13.07.2014 12:30 22,3 C 23,0 C 20,5 C 27,0 C 27,0 C 4,7 C 55 % 68 % 100 % 1008,2 hPa 0,0 l/m 4,2 km/h (1 Bft) SW 225 5 min 0,0 UV-I 12,8 C 27,0 C 5,5 km/h (1 Bft)
13.07.2014 12:35 22,3 C 23,0 C 20,7 C 27,1 C 27,1 C 4,8 C 55 % 68 % 100 % 1007,6 hPa 0,0 l/m 3,5 km/h (1 Bft) W 270 5 min 0,0 UV-I 12,8 C 27,1 C 3,9 km/h (1 Bft)
13.07.2014 12:40 22,4 C 23,0 C 20,7 C 26,5 C 26,5 C 4,1 C 54 % 67 % 100 % 1007,6 hPa 0,0 l/m 3,5 km/h (1 Bft) W-NW 292 5 min 0,0 UV-I 12,6 C 26,5 C 5,1 km/h (1 Bft)
13.07.2014 12:45 22,3 C 23,0 C 20,6 C 25,8 C 25,8 C 3,5 C 55 % 67 % 92 % 1007,6 hPa 0,0 l/m 3,7 km/h (1 Bft) W-SW 247 5 min 0,0 UV-I 12,8 C 25,8 C 2,6 km/h (1 Bft)
13.07.2014 12:50 22,1 C 23,0 C 20,4 C 25,0 C 25,0 C 2,9 C 54 % 67 % 76 % 1007,6 hPa 0,0 l/m 3,2 km/h (1 Bft) S-SW 202 0 min 0,0 UV-I 12,3 C 25,0 C 7,9 km/h (2 Bft)
13.07.2014 12:55 22,0 C 23,0 C 20,4 C 24,6 C 24,6 C 2,6 C 53 % 67 % 68 % 1007,6 hPa 0,0 l/m 3,1 km/h (1 Bft) S 180 0 min 0,0 UV-I 12,0 C 24,6 C 3,4 km/h (1 Bft)
13.07.2014 13:00 21,9 C 23,1 C 20,4 C 24,3 C 24,3 C 2,4 C 53 % 66 % 63 % 1007,6 hPa 0,0 l/m 2,9 km/h (1 Bft) W 270 0 min 0,0 UV-I 11,9 C 24,3 C 4,5 km/h (1 Bft)
13.07.2014 13:05 21,8 C 23,1 C 20,5 C 24,4 C 24,4 C 2,6 C 54 % 66 % 68 % 1007,6 hPa 0,0 l/m 2,4 km/h (1 Bft) N-NW 337 0 min 0,0 UV-I 12,1 C 24,4 C 0,0 km/h (0 Bft)
13.07.2014 13:10 21,9 C 23,1 C 20,4 C 24,4 C 24,4 C 2,5 C 55 % 66 % 66 % 1007,6 hPa 0,0 l/m 1,4 km/h (1 Bft) SO 135 0 min 0,0 UV-I 12,4 C 24,4 C 1,8 km/h (1 Bft)
13.07.2014 13:15 22,0 C 23,1 C 20,5 C 24,6 C 24,6 C 2,6 C 55 % 66 % 68 % 1007,2 hPa 0,0 l/m 1,0 km/h (0 Bft) W 270 0 min 0,0 UV-I 12,5 C 24,6 C 5,3 km/h (1 Bft)
13.07.2014 13:20 22,3 C 23,1 C 20,7 C 24,9 C 24,9 C 2,6 C 55 % 67 % 68 % 1007,2 hPa 0,0 l/m 1,8 km/h (1 Bft) W-SW 247 0 min 0,0 UV-I 12,8 C 24,9 C 5,0 km/h (1 Bft)
13.07.2014 13:25 22,2 C 23,1 C 20,6 C 25,1 C 25,1 C 2,9 C 54 % 67 % 76 % 1007,2 hPa 0,0 l/m 1,9 km/h (1 Bft) S 180 0 min 0,0 UV-I 12,4 C 25,1 C 0,0 km/h (0 Bft)
13.07.2014 13:30 22,4 C 23,1 C 20,9 C 25,6 C 25,6 C 3,2 C 56 % 66 % 84 % 1007,2 hPa 0,0 l/m 1,1 km/h (1 Bft) O 90 0 min 0,0 UV-I 13,2 C 25,6 C 0,0 km/h (0 Bft)
13.07.2014 13:35 22,5 C 23,1 C 20,9 C 25,6 C 25,6 C 3,1 C 55 % 66 % 82 % 1007,6 hPa 0,0 l/m 0,5 km/h (0 Bft) W-SW 247 0 min 0,0 UV-I 13,0 C 25,6 C 0,0 km/h (0 Bft)
13.07.2014 13:40 22,6 C 23,1 C 20,7 C 25,4 C 25,4 C 2,8 C 54 % 66 % 74 % 1007,6 hPa 0,0 l/m 0,5 km/h (0 Bft) W-SW 247 0 min 0,0 UV-I 12,8 C 25,4 C 0,0 km/h (0 Bft)
13.07.2014 13:45 22,7 C 23,1 C 20,7 C 25,2 C 25,2 C 2,5 C 55 % 67 % 66 % 1007,6 hPa 0,0 l/m 0,8 km/h (0 Bft) S 180 0 min 0,0 UV-I 13,2 C 25,2 C 0,0 km/h (0 Bft)
13.07.2014 13:50 22,6 C 23,1 C 20,7 C 25,0 C 25,0 C 2,4 C 54 % 65 % 63 % 1007,6 hPa 0,0 l/m 1,0 km/h (0 Bft) S-SW 202 0 min 0,0 UV-I 12,8 C 25,0 C 1,6 km/h (1 Bft)
13.07.2014 13:55 22,6 C 23,1 C 20,7 C 25,1 C 25,1 C 2,5 C 54 % 66 % 66 % 1007,2 hPa 0,0 l/m 0,6 km/h (0 Bft) W-SW 247 0 min 0,0 UV-I 12,8 C 25,1 C 0,0 km/h (0 Bft)
13.07.2014 14:00 22,7 C 23,1 C 20,7 C 25,3 C 25,3 C 2,6 C 54 % 66 % 68 % 1007,2 hPa 0,0 l/m 0,8 km/h (0 Bft) SW 225 0 min 0,0 UV-I 12,9 C 25,3 C 0,0 km/h (0 Bft)
13.07.2014 14:05 22,8 C 23,1 C 20,7 C 25,4 C 25,4 C 2,6 C 55 % 66 % 68 % 1007,2 hPa 0,0 l/m 0,6 km/h (0 Bft) S-SO 157 0 min 0,0 UV-I 13,3 C 25,4 C 0,0 km/h (0 Bft)
13.07.2014 14:10 22,8 C 23,1 C 21,1 C 26,0 C 26,0 C 3,2 C 55 % 67 % 84 % 1007,2 hPa 0,0 l/m 0,6 km/h (0 Bft) W-SW 247 0 min 0,0 UV-I 13,3 C 26,0 C 2,4 km/h (1 Bft)
13.07.2014 14:15 22,9 C 23,1 C 21,1 C 26,7 C 26,7 C 3,8 C 54 % 67 % 100 % 1006,9 hPa 0,0 l/m 1,1 km/h (1 Bft) O-SO 112 5 min 0,0 UV-I 13,1 C 26,7 C 0,0 km/h (0 Bft)
13.07.2014 14:20 23,4 C 23,2 C 21,5 C 27,6 C 27,6 C 4,2 C 54 % 66 % 100 % 1006,9 hPa 0,0 l/m 1,4 km/h (1 Bft) O 90 5 min 0,0 UV-I 13,6 C 27,6 C 2,1 km/h (1 Bft)
13.07.2014 14:25 23,4 C 23,2 C 21,5 C 28,0 C 28,0 C 4,6 C 56 % 66 % 100 % 1006,9 hPa 0,0 l/m 1,0 km/h (0 Bft) W-NW 292 5 min 0,0 UV-I 14,1 C 28,0 C 1,9 km/h (1 Bft)
13.07.2014 14:30 23,5 C 23,2 C 21,5 C 27,7 C 27,7 C 4,2 C 53 % 66 % 100 % 1006,9 hPa 0,0 l/m 1,0 km/h (0 Bft) NO 45 5 min 0,0 UV-I 13,4 C 27,7 C 0,0 km/h (0 Bft)
13.07.2014 14:35 23,5 C 23,3 C 21,4 C 27,3 C 27,3 C 3,8 C 54 % 66 % 100 % 1007,0 hPa 0,0 l/m 0,8 km/h (0 Bft) NW 315 5 min 0,0 UV-I 13,6 C 27,3 C 0,0 km/h (0 Bft)
13.07.2014 14:40 23,5 C 23,3 C 21,3 C 26,7 C 26,7 C 3,2 C 55 % 67 % 84 % 1007,0 hPa 0,0 l/m 0,5 km/h (0 Bft) N-NW 337 0 min 0,0 UV-I 13,9 C 26,7 C 2,4 km/h (1 Bft)
13.07.2014 14:45 23,3 C 23,3 C 21,3 C 26,4 C 26,4 C 3,1 C 58 % 68 % 82 % 1007,0 hPa 0,0 l/m 0,6 km/h (0 Bft) W-SW 247 0 min 0,0 UV-I 14,6 C 26,4 C 0,0 km/h (0 Bft)
13.07.2014 14:50 23,1 C 23,3 C 21,5 C 26,2 C 26,2 C 3,1 C 59 % 69 % 82 % 1007,0 hPa 0,0 l/m 1,0 km/h (0 Bft) SO 135 0 min 0,0 UV-I 14,6 C 26,2 C 0,0 km/h (0 Bft)
13.07.2014 14:55 23,0 C 23,3 C 21,4 C 26,3 C 26,3 C 3,3 C 59 % 69 % 87 % 1007,1 hPa 0,0 l/m 0,6 km/h (0 Bft) O-SO 112 5 min 0,0 UV-I 14,5 C 26,3 C 0,0 km/h (0 Bft)
13.07.2014 15:00 23,2 C 23,3 C 21,6 C 27,1 C 27,1 C 3,9 C 62 % 70 % 100 % 1007,1 hPa 0,0 l/m 0,5 km/h (0 Bft) S 180 5 min 0,0 UV-I 15,5 C 27,1 C 0,0 km/h (0 Bft)
13.07.2014 15:05 23,4 C 23,3 C 21,7 C 27,2 C 27,2 C 3,8 C 62 % 71 % 100 % 1007,1 hPa 0,0 l/m 1,3 km/h (1 Bft) W-SW 247 5 min 0,0 UV-I 15,7 C 27,2 C 5,0 km/h (1 Bft)
13.07.2014 15:10 23,2 C 23,3 C 21,6 C 26,9 C 26,9 C 3,7 C 63 % 71 % 97 % 1007,1 hPa 0,0 l/m 1,4 km/h (1 Bft) N-NO 22 5 min 0,0 UV-I 15,8 C 26,9 C 0,0 km/h (0 Bft)
13.07.2014 15:15 23,3 C 23,3 C 21,6 C 27,1 C 27,1 C 3,8 C 63 % 71 % 100 % 1007,1 hPa 0,0 l/m 1,1 km/h (1 Bft) SO 135 5 min 0,0 UV-I 15,9 C 27,1 C 1,9 km/h (1 Bft)
13.07.2014 15:20 23,2 C 23,4 C 21,6 C 27,1 C 27,1 C 3,9 C 63 % 71 % 100 % 1007,1 hPa 0,0 l/m 1,6 km/h (1 Bft) O 90 5 min 0,0 UV-I 15,8 C 27,1 C 0,0 km/h (0 Bft)
13.07.2014 15:25 23,3 C 23,4 C 21,6 C 26,6 C 26,6 C 3,3 C 63 % 71 % 87 % 1007,1 hPa 0,0 l/m 1,8 km/h (1 Bft) O-SO 112 5 min 0,0 UV-I 15,9 C 26,6 C 2,4 km/h (1 Bft)
13.07.2014 15:30 23,0 C 23,4 C 21,6 C 26,2 C 26,2 C 3,2 C 62 % 70 % 84 % 1007,1 hPa 0,0 l/m 1,8 km/h (1 Bft) S-SO 157 0 min 0,0 UV-I 15,3 C 26,2 C 5,1 km/h (1 Bft)
13.07.2014 15:35 22,9 C 23,4 C 21,7 C 26,2 C 26,2 C 3,3 C 62 % 69 % 87 % 1006,8 hPa 0,0 l/m 2,6 km/h (1 Bft) S 180 5 min 0,0 UV-I 15,2 C 26,2 C 3,2 km/h (1 Bft)
13.07.2014 15:40 23,1 C 23,4 C 22,0 C 26,7 C 26,7 C 3,6 C 62 % 70 % 95 % 1006,8 hPa 0,0 l/m 2,9 km/h (1 Bft) SW 225 5 min 0,0 UV-I 15,4 C 26,7 C 9,2 km/h (2 Bft)
13.07.2014 15:45 23,3 C 23,4 C 22,1 C 27,3 C 27,3 C 4,0 C 60 % 69 % 100 % 1006,8 hPa 0,0 l/m 3,5 km/h (1 Bft) S-SO 157 5 min 0,0 UV-I 15,1 C 27,3 C 4,0 km/h (1 Bft)
13.07.2014 15:50 23,6 C 23,4 C 22,5 C 28,4 C 28,4 C 4,8 C 60 % 69 % 100 % 1006,8 hPa 0,0 l/m 4,2 km/h (1 Bft) S 180 5 min 0,0 UV-I 15,4 C 28,4 C 14,3 km/h (3 Bft)
13.07.2014 15:55 23,7 C 23,4 C 22,4 C 28,2 C 28,2 C 4,5 C 59 % 69 % 100 % 1006,8 hPa 0,0 l/m 3,9 km/h (1 Bft) S 180 5 min 0,0 UV-I 15,2 C 28,2 C 3,5 km/h (1 Bft)
13.07.2014 16:00 23,5 C 23,4 C 22,2 C 27,3 C 27,3 C 3,8 C 58 % 67 % 100 % 1006,8 hPa 0,0 l/m 3,9 km/h (1 Bft) S 180 5 min 0,0 UV-I 14,7 C 27,3 C 1,6 km/h (1 Bft)
13.07.2014 16:05 23,4 C 23,5 C 22,4 C 27,1 C 27,1 C 3,7 C 58 % 66 % 97 % 1006,8 hPa 0,0 l/m 3,2 km/h (1 Bft) NW 315 5 min 0,0 UV-I 14,7 C 27,1 C 3,1 km/h (1 Bft)
13.07.2014 16:10 23,4 C 23,5 C 22,4 C 27,1 C 27,1 C 3,7 C 58 % 66 % 97 % 1006,8 hPa 0,0 l/m 3,2 km/h (1 Bft) NW 315 5 min 0,0 UV-I 14,7 C 27,1 C 3,1 km/h (1 Bft)
13.07.2014 16:15 23,5 C 23,5 C 22,4 C 27,5 C 27,5 C 4,0 C 58 % 66 % 100 % 1006,8 hPa 0,0 l/m 2,4 km/h (1 Bft) W 270 5 min 0,0 UV-I 14,7 C 27,5 C 1,9 km/h (1 Bft)
13.07.2014 16:20 23,9 C 23,5 C 22,7 C 28,4 C 28,4 C 4,5 C 56 % 65 % 100 % 1006,8 hPa 0,0 l/m 3,4 km/h (1 Bft) SO 135 5 min 0,0 UV-I 14,6 C 28,4 C 5,1 km/h (1 Bft)
13.07.2014 16:25 23,9 C 23,5 C 22,5 C 27,8 C 27,8 C 3,9 C 56 % 64 % 100 % 1006,8 hPa 0,0 l/m 3,7 km/h (1 Bft) NW 315 5 min 0,0 UV-I 14,6 C 27,8 C 2,4 km/h (1 Bft)
13.07.2014 16:30 23,6 C 23,5 C 22,2 C 26,8 C 26,8 C 3,2 C 56 % 65 % 84 % 1006,8 hPa 0,0 l/m 1,6 km/h (1 Bft) S 180 0 min 0,0 UV-I 14,3 C 26,8 C 3,2 km/h (1 Bft)
13.07.2014 16:35 23,6 C 23,5 C 22,2 C 26,2 C 26,2 C 2,6 C 57 % 64 % 68 % 1007,1 hPa 0,0 l/m 1,4 km/h (1 Bft) W-SW 247 0 min 0,0 UV-I 14,6 C 26,2 C 0,0 km/h (0 Bft)
13.07.2014 16:40 23,2 C 23,5 C 21,9 C 25,6 C 25,6 C 2,4 C 56 % 65 % 63 % 1007,1 hPa 0,0 l/m 2,4 km/h (1 Bft) W 270 0 min 0,0 UV-I 13,9 C 25,6 C 6,1 km/h (2 Bft)
13.07.2014 16:45 23,2 C 23,5 C 21,8 C 25,1 C 25,1 C 1,9 C 57 % 67 % 50 % 1007,1 hPa 0,0 l/m 3,2 km/h (1 Bft) W-SW 247 0 min 0,0 UV-I 14,2 C 25,1 C 7,7 km/h (2 Bft)
13.07.2014 16:50 23,3 C 23,5 C 22,0 C 25,6 C 25,6 C 2,3 C 59 % 67 % 61 % 1007,1 hPa 0,0 l/m 3,1 km/h (1 Bft) N-NW 337 0 min 0,0 UV-I 14,8 C 25,6 C 2,1 km/h (1 Bft)
13.07.2014 16:55 23,3 C 23,6 C 22,1 C 25,6 C 25,6 C 2,3 C 58 % 66 % 61 % 1006,7 hPa 0,0 l/m 2,3 km/h (1 Bft) S-SO 157 0 min 0,0 UV-I 14,6 C 25,6 C 0,0 km/h (0 Bft)
13.07.2014 17:00 23,0 C 23,6 C 21,6 C 25,0 C 25,0 C 2,0 C 59 % 67 % 53 % 1006,7 hPa 0,0 l/m 1,0 km/h (0 Bft) SW 225 0 min 0,0 UV-I 14,5 C 25,0 C 2,4 km/h (1 Bft)
13.07.2014 17:05 22,5 C 23,6 C 21,0 C 23,1 C 23,1 C 0,6 C 61 % 69 % 16 % 1006,7 hPa 0,0 l/m 3,2 km/h (1 Bft) W-SW 247 0 min 0,0 UV-I 14,6 C 23,1 C 3,2 km/h (1 Bft)
13.07.2014 17:10 22,5 C 23,6 C 21,0 C 23,1 C 23,1 C 0,6 C 61 % 69 % 16 % 1006,7 hPa 0,0 l/m 3,2 km/h (1 Bft) W-SW 247 0 min 0,0 UV-I 14,6 C 23,1 C 3,2 km/h (1 Bft)
13.07.2014 17:15 22,1 C 23,6 C 20,8 C 22,2 C 22,2 C 0,1 C 61 % 69 % 3 % 1007,1 hPa 0,0 l/m 3,9 km/h (1 Bft) S-SO 157 0 min 0,0 UV-I 14,2 C 22,2 C 4,5 km/h (1 Bft)
13.07.2014 17:20 21,3 C 23,7 C 20,3 C 21,3 C 21,2 C 0,0 C 64 % 71 % 0 % 1007,1 hPa 0,0 l/m 3,2 km/h (1 Bft) W 270 0 min 0,0 UV-I 14,2 C 21,2 C 1,9 km/h (1 Bft)
13.07.2014 17:25 21,1 C 23,7 C 20,0 C 20,8 C 20,2 C 0,0 C 67 % 73 % 0 % 1007,1 hPa 0,0 l/m 2,6 km/h (1 Bft) W-SW 247 0 min 0,0 UV-I 14,7 C 20,2 C 5,6 km/h (1 Bft)
13.07.2014 17:30 20,3 C 23,7 C 19,6 C 19,8 C 18,7 C 0,0 C 69 % 75 % 0 % 1007,1 hPa 0,0 l/m 3,4 km/h (1 Bft) W-SW 247 0 min 0,0 UV-I 14,4 C 18,7 C 4,2 km/h (1 Bft)
13.07.2014 17:35 20,0 C 23,7 C 19,5 C 19,5 C 18,5 C 0,0 C 70 % 75 % 0 % 1007,6 hPa 0,0 l/m 4,3 km/h (1 Bft) W-NW 292 0 min 0,0 UV-I 14,4 C 18,5 C 6,4 km/h (2 Bft)
13.07.2014 17:40 19,3 C 23,7 C 19,1 C 19,0 C 18,5 C 0,0 C 73 % 76 % 0 % 1007,6 hPa 0,0 l/m 4,2 km/h (1 Bft) SW 225 0 min 0,0 UV-I 14,3 C 18,5 C 4,2 km/h (1 Bft)
13.07.2014 17:45 18,8 C 23,7 C 18,8 C 18,7 C 18,6 C 0,0 C 74 % 77 % 0 % 1007,6 hPa 0,0 l/m 4,5 km/h (1 Bft) S 180 0 min 0,0 UV-I 14,1 C 18,6 C 2,7 km/h (1 Bft)
13.07.2014 17:50 18,4 C 23,7 C 18,7 C 18,7 C 18,7 C 0,3 C 76 % 78 % 8 % 1006,9 hPa 0,0 l/m 3,7 km/h (1 Bft) W-SW 247 0 min 0,0 UV-I 14,1 C 18,7 C 4,7 km/h (1 Bft)
13.07.2014 17:55 18,4 C 23,7 C 18,7 C 18,7 C 18,7 C 0,3 C 76 % 78 % 8 % 1006,9 hPa 0,0 l/m 3,7 km/h (1 Bft) W-SW 247 0 min 0,0 UV-I 14,1 C 18,7 C 4,7 km/h (1 Bft)
13.07.2014 18:00 18,3 C 23,8 C 18,6 C 18,5 C 18,5 C 0,2 C 78 % 79 % 5 % 1006,9 hPa 0,0 l/m 3,9 km/h (1 Bft) NW 315 0 min 0,0 UV-I 14,4 C 18,5 C 7,2 km/h (2 Bft)
13.07.2014 18:05 17,9 C 23,8 C 18,3 C 18,0 C 18,0 C 0,1 C 79 % 80 % 3 % 1006,9 hPa 0,0 l/m 2,7 km/h (1 Bft) SW 225 0 min 0,0 UV-I 14,2 C 18,0 C 2,4 km/h (1 Bft)
13.07.2014 18:10 17,9 C 23,8 C 18,3 C 18,0 C 18,0 C 0,1 C 79 % 80 % 3 % 1006,9 hPa 0,0 l/m 2,7 km/h (1 Bft) SW 225 0 min 0,0 UV-I 14,2 C 18,0 C 2,4 km/h (1 Bft)
13.07.2014 18:15 17,8 C 23,8 C 18,3 C 17,8 C 17,8 C 0,0 C 79 % 80 % 0 % 1006,4 hPa 0,0 l/m 1,9 km/h (1 Bft) W 270 0 min 0,0 UV-I 14,1 C 17,8 C 2,3 km/h (1 Bft)
13.07.2014 18:20 17,7 C 23,8 C 18,0 C 17,7 C 17,6 C 0,0 C 80 % 81 % 0 % 1006,4 hPa 0,0 l/m 1,3 km/h (1 Bft) SW 225 0 min 0,0 UV-I 14,2 C 17,6 C 0,0 km/h (0 Bft)
13.07.2014 18:25 17,6 C 23,8 C 17,9 C 17,6 C 17,6 C 0,0 C 80 % 81 % 0 % 1006,4 hPa 0,0 l/m 0,6 km/h (0 Bft) S 180 0 min 0,0 UV-I 14,1 C 17,6 C 0,0 km/h (0 Bft)
13.07.2014 18:30 17,7 C 23,8 C 17,9 C 17,7 C 17,7 C 0,0 C 81 % 81 % 0 % 1007,1 hPa 0,0 l/m 0,0 km/h (0 Bft) W-SW 247 0 min 0,0 UV-I 14,4 C 17,7 C 0,0 km/h (0 Bft)
13.07.2014 18:35 17,6 C 23,8 C 17,7 C 18,0 C 18,0 C 0,4 C 81 % 82 % 11 % 1007,1 hPa 0,0 l/m 0,0 km/h (0 Bft) O-SO 112 0 min 0,0 UV-I 14,3 C 18,0 C 0,0 km/h (0 Bft)
13.07.2014 18:40 17,7 C 23,8 C 17,9 C 18,2 C 18,2 C 0,5 C 81 % 82 % 13 % 1007,1 hPa 0,0 l/m 0,0 km/h (0 Bft) S 180 0 min 0,0 UV-I 14,4 C 18,2 C 0,0 km/h (0 Bft)
13.07.2014 18:45 17,7 C 23,8 C 17,9 C 18,2 C 18,2 C 0,5 C 81 % 82 % 13 % 1007,1 hPa 0,0 l/m 0,0 km/h (0 Bft) S 180 0 min 0,0 UV-I 14,4 C 18,2 C 0,0 km/h (0 Bft)
13.07.2014 18:50 17,7 C 23,8 C 17,7 C 17,9 C 17,9 C 0,2 C 81 % 83 % 5 % 1006,5 hPa 0,0 l/m 0,2 km/h (0 Bft) O-NO 67 0 min 0,0 UV-I 14,4 C 17,9 C 0,0 km/h (0 Bft)
13.07.2014 18:55 17,7 C 23,8 C 17,7 C 17,9 C 17,9 C 0,2 C 81 % 83 % 5 % 1006,5 hPa 0,0 l/m 0,2 km/h (0 Bft) O-NO 67 0 min 0,0 UV-I 14,4 C 17,9 C 0,0 km/h (0 Bft)
13.07.2014 19:00 17,9 C 23,9 C 17,7 C 17,9 C 17,9 C 0,0 C 82 % 83 % 0 % 1006,5 hPa 0,0 l/m 0,0 km/h (0 Bft) O-NO 67 0 min 0,0 UV-I 14,8 C 17,9 C 0,0 km/h (0 Bft)
13.07.2014 19:05 17,8 C 23,9 C 17,7 C 18,0 C 18,0 C 0,2 C 82 % 83 % 5 % 1006,5 hPa 0,0 l/m 0,0 km/h (0 Bft) W-SW 247 0 min 0,0 UV-I 14,7 C 18,0 C 0,0 km/h (0 Bft)
13.07.2014 19:10 17,8 C 23,9 C 17,7 C 18,0 C 18,0 C 0,2 C 82 % 83 % 5 % 1006,5 hPa 0,0 l/m 0,0 km/h (0 Bft) W-SW 247 0 min 0,0 UV-I 14,7 C 18,0 C 0,0 km/h (0 Bft)
13.07.2014 19:15 17,9 C 23,8 C 17,7 C 18,1 C 18,1 C 0,2 C 82 % 84 % 5 % 1006,4 hPa 0,0 l/m 0,3 km/h (0 Bft) NW 315 0 min 0,0 UV-I 14,8 C 18,1 C 0,0 km/h (0 Bft)
13.07.2014 19:20 18,0 C 23,9 C 17,7 C 18,0 C 18,0 C 0,0 C 82 % 84 % 0 % 1006,4 hPa 0,0 l/m 0,3 km/h (0 Bft) N 360 0 min 0,0 UV-I 14,9 C 18,0 C 0,0 km/h (0 Bft)
13.07.2014 19:25 18,0 C 23,9 C 17,6 C 18,0 C 18,0 C 0,0 C 82 % 84 % 0 % 1006,4 hPa 0,0 l/m 0,0 km/h (0 Bft) SW 225 0 min 0,0 UV-I 14,9 C 18,0 C 1,6 km/h (1 Bft)
13.07.2014 19:30 18,0 C 23,9 C 17,6 C 18,0 C 18,0 C 0,0 C 82 % 84 % 0 % 1006,4 hPa 0,0 l/m 0,0 km/h (0 Bft) SW 225 0 min 0,0 UV-I 14,9 C 18,0 C 1,6 km/h (1 Bft)
13.07.2014 19:35 18,0 C 23,9 C 17,7 C 17,9 C 17,8 C 0,0 C 83 % 85 % 0 % 1006,3 hPa 0,0 l/m 0,3 km/h (0 Bft) W-SW 247 0 min 0,0 UV-I 15,1 C 17,8 C 0,0 km/h (0 Bft)
13.07.2014 19:40 18,0 C 23,9 C 17,7 C 17,9 C 17,6 C 0,0 C 83 % 85 % 0 % 1006,3 hPa 0,0 l/m 0,6 km/h (0 Bft) N-NO 22 0 min 0,0 UV-I 15,1 C 17,6 C 4,0 km/h (1 Bft)
13.07.2014 19:45 18,0 C 23,8 C 17,8 C 17,9 C 17,7 C 0,0 C 83 % 84 % 0 % 1006,3 hPa 0,0 l/m 1,0 km/h (0 Bft) S 180 0 min 0,0 UV-I 15,1 C 17,7 C 0,0 km/h (0 Bft)
13.07.2014 19:50 17,9 C 23,9 C 17,7 C 17,7 C 17,4 C 0,0 C 83 % 84 % 0 % 1006,5 hPa 0,0 l/m 1,3 km/h (1 Bft) S 180 0 min 0,0 UV-I 15,0 C 17,4 C 0,0 km/h (0 Bft)
13.07.2014 19:55 17,9 C 23,9 C 17,7 C 17,7 C 17,4 C 0,0 C 83 % 84 % 0 % 1006,5 hPa 0,0 l/m 1,3 km/h (1 Bft) S 180 0 min 0,0 UV-I 15,0 C 17,4 C 0,0 km/h (0 Bft)
13.07.2014 20:00 17,8 C 24,0 C 17,7 C 17,5 C 16,9 C 0,0 C 83 % 85 % 0 % 1006,5 hPa 0,0 l/m 0,8 km/h (0 Bft) S-SO 157 0 min 0,0 UV-I 14,9 C 16,9 C 1,8 km/h (1 Bft)
13.07.2014 20:05 17,8 C 24,2 C 17,5 C 17,4 C 16,6 C 0,0 C 83 % 85 % 0 % 1006,5 hPa 0,0 l/m 1,1 km/h (1 Bft) W-SW 247 0 min 0,0 UV-I 14,9 C 16,6 C 0,0 km/h (0 Bft)
13.07.2014 20:10 17,5 C 24,3 C 17,0 C 17,2 C 16,5 C 0,0 C 83 % 86 % 0 % 1006,5 hPa 0,7 l/m 1,4 km/h (1 Bft) S 180 0 min 0,0 UV-I 14,6 C 16,5 C 0,0 km/h (0 Bft)
13.07.2014 20:15 17,4 C 24,3 C 17,1 C 17,1 C 16,4 C 0,0 C 84 % 86 % 0 % 1006,2 hPa 0,0 l/m 1,1 km/h (1 Bft) W-SW 247 0 min 0,0 UV-I 14,7 C 16,4 C 2,4 km/h (1 Bft)
13.07.2014 20:20 17,2 C 24,3 C 16,8 C 16,9 C 16,3 C 0,0 C 84 % 87 % 0 % 1006,2 hPa 0,0 l/m 0,5 km/h (0 Bft) S 180 0 min 0,0 UV-I 14,5 C 16,3 C 0,0 km/h (0 Bft)
13.07.2014 20:25 17,0 C 24,3 C 16,8 C 16,8 C 16,3 C 0,0 C 84 % 87 % 0 % 1006,2 hPa 0,0 l/m 0,3 km/h (0 Bft) S 180 0 min 0,0 UV-I 14,3 C 16,3 C 0,0 km/h (0 Bft)
13.07.2014 20:30 16,9 C 24,4 C 16,7 C 16,7 C 16,2 C 0,0 C 85 % 87 % 0 % 1006,2 hPa 0,0 l/m 0,2 km/h (0 Bft) S-SO 157 0 min 0,0 UV-I 14,4 C 16,2 C 0,0 km/h (0 Bft)
13.07.2014 20:35 16,8 C 24,4 C 16,7 C 16,6 C 16,2 C 0,0 C 85 % 87 % 0 % 1006,5 hPa 0,0 l/m 0,0 km/h (0 Bft) SW 225 0 min 0,0 UV-I 14,3 C 16,2 C 0,0 km/h (0 Bft)
13.07.2014 20:40 16,5 C 24,4 C 16,5 C 16,4 C 16,1 C 0,0 C 85 % 88 % 0 % 1006,5 hPa 0,0 l/m 0,2 km/h (0 Bft) W-SW 247 0 min 0,0 UV-I 14,0 C 16,1 C 0,0 km/h (0 Bft)
13.07.2014 20:45 16,5 C 24,4 C 16,5 C 16,4 C 16,1 C 0,0 C 85 % 88 % 0 % 1006,5 hPa 0,0 l/m 0,2 km/h (0 Bft) SW 225 0 min 0,0 UV-I 14,0 C 16,1 C 0,0 km/h (0 Bft)
13.07.2014 20:50 16,2 C 24,4 C 16,4 C 16,2 C 16,1 C 0,0 C 85 % 88 % 0 % 1006,5 hPa 0,0 l/m 0,2 km/h (0 Bft) SO 135 0 min 0,0 UV-I 13,7 C 16,1 C 0,0 km/h (0 Bft)
13.07.2014 20:55 16,2 C 24,4 C 16,4 C 16,2 C 16,1 C 0,0 C 85 % 88 % 0 % 1006,4 hPa 0,0 l/m 0,0 km/h (0 Bft) S 180 0 min 0,0 UV-I 13,7 C 16,1 C 0,0 km/h (0 Bft)
13.07.2014 21:00 16,1 C 24,4 C 16,4 C 16,0 C 15,9 C 0,0 C 86 % 88 % 0 % 1006,4 hPa 0,0 l/m 0,0 km/h (0 Bft) SW 225 0 min 0,0 UV-I 13,8 C 15,9 C 0,0 km/h (0 Bft)
13.07.2014 21:05 16,1 C 24,4 C 16,3 C 16,0 C 15,9 C 0,0 C 86 % 88 % 0 % 1006,4 hPa 0,0 l/m 0,0 km/h (0 Bft) S 180 0 min 0,0 UV-I 13,8 C 15,9 C 0,0 km/h (0 Bft)
13.07.2014 21:10 15,9 C 24,4 C 16,3 C 15,9 C 15,8 C 0,0 C 86 % 89 % 0 % 1006,4 hPa 0,0 l/m 0,0 km/h (0 Bft) S 180 0 min 0,0 UV-I 13,6 C 15,8 C 0,0 km/h (0 Bft)
13.07.2014 21:15 15,8 C 24,4 C 16,3 C 15,8 C 15,7 C 0,0 C 86 % 89 % 0 % 1006,1 hPa 0,0 l/m 0,0 km/h (0 Bft) SO 135 0 min 0,0 UV-I 13,5 C 15,7 C 0,0 km/h (0 Bft)
13.07.2014 21:20 15,7 C 24,4 C 16,2 C 15,7 C 15,7 C 0,0 C 86 % 89 % 0 % 1006,1 hPa 0,0 l/m 0,0 km/h (0 Bft) S 180 0 min 0,0 UV-I 13,4 C 15,7 C 0,0 km/h (0 Bft)
13.07.2014 21:25 15,7 C 24,4 C 16,2 C 15,7 C 15,7 C 0,0 C 86 % 89 % 0 % 1006,1 hPa 0,0 l/m 0,0 km/h (0 Bft) S 180 0 min 0,0 UV-I 13,4 C 15,7 C 0,0 km/h (0 Bft)
13.07.2014 21:30 15,7 C 24,4 C 16,3 C 15,7 C 15,6 C 0,0 C 87 % 89 % 0 % 1006,1 hPa 0,0 l/m 0,0 km/h (0 Bft) S 180 0 min 0,0 UV-I 13,5 C 15,6 C 0,0 km/h (0 Bft)
13.07.2014 21:35 15,6 C 24,4 C 16,2 C 15,7 C 15,7 C 0,1 C 87 % 89 % 0 % 1006,1 hPa 0,0 l/m 0,0 km/h (0 Bft) N-NW 337 0 min 0,0 UV-I 13,4 C 15,7 C 0,0 km/h (0 Bft)
13.07.2014 21:40 15,5 C 24,4 C 16,3 C 15,7 C 15,7 C 0,2 C 87 % 89 % 0 % 1006,1 hPa 0,0 l/m 0,0 km/h (0 Bft) SO 135 0 min 0,0 UV-I 13,3 C 15,7 C 0,0 km/h (0 Bft)
13.07.2014 21:45 15,5 C 24,4 C 16,3 C 15,7 C 15,7 C 0,2 C 87 % 90 % 0 % 1006,1 hPa 0,0 l/m 0,0 km/h (0 Bft) S 180 0 min 0,0 UV-I 13,3 C 15,7 C 0,0 km/h (0 Bft)
13.07.2014 21:50 15,4 C 24,4 C 16,1 C 15,7 C 15,7 C 0,3 C 87 % 90 % 0 % 1006,1 hPa 0,0 l/m 0,0 km/h (0 Bft) SO 135 0 min 0,0 UV-I 13,2 C 15,7 C 0,0 km/h (0 Bft)
13.07.2014 21:55 15,4 C 24,4 C 16,1 C 15,7 C 15,7 C 0,3 C 87 % 90 % 0 % 1006,2 hPa 0,0 l/m 0,0 km/h (0 Bft) S-SO 157 0 min 0,0 UV-I 13,2 C 15,7 C 0,0 km/h (0 Bft)
13.07.2014 22:00 15,4 C 24,4 C 16,1 C 15,7 C 15,7 C 0,3 C 87 % 90 % 0 % 1006,2 hPa 0,0 l/m 0,0 km/h (0 Bft) O-SO 112 0 min 0,0 UV-I 13,2 C 15,7 C 0,0 km/h (0 Bft)
13.07.2014 22:05 15,3 C 24,4 C 16,1 C 15,7 C 15,7 C 0,4 C 87 % 90 % 0 % 1006,2 hPa 0,0 l/m 0,0 km/h (0 Bft) W-SW 247 0 min 0,0 UV-I 13,1 C 15,7 C 0,0 km/h (0 Bft)
13.07.2014 22:10 15,3 C 24,4 C 16,1 C 15,7 C 15,7 C 0,4 C 87 % 90 % 0 % 1006,2 hPa 0,0 l/m 0,0 km/h (0 Bft) SW 225 0 min 0,0 UV-I 13,1 C 15,7 C 0,0 km/h (0 Bft)
13.07.2014 22:15 15,3 C 24,4 C 16,1 C 15,7 C 15,7 C 0,4 C 87 % 90 % 0 % 1006,3 hPa 0,0 l/m 0,0 km/h (0 Bft) S-SW 202 0 min 0,0 UV-I 13,1 C 15,7 C 0,0 km/h (0 Bft)
13.07.2014 22:20 15,3 C 24,4 C 16,1 C 15,7 C 15,7 C 0,4 C 88 % 90 % 0 % 1006,3 hPa 0,0 l/m 0,0 km/h (0 Bft) SW 225 0 min 0,0 UV-I 13,3 C 15,7 C 0,0 km/h (0 Bft)
13.07.2014 22:25 15,3 C 24,4 C 16,1 C 15,6 C 15,6 C 0,3 C 88 % 90 % 0 % 1006,3 hPa 0,0 l/m 0,0 km/h (0 Bft) W-SW 247 0 min 0,0 UV-I 13,3 C 15,6 C 0,0 km/h (0 Bft)
13.07.2014 22:30 15,2 C 24,4 C 16,1 C 15,6 C 15,6 C 0,4 C 88 % 90 % 0 % 1006,3 hPa 0,0 l/m 0,0 km/h (0 Bft) S-SO 157 0 min 0,0 UV-I 13,2 C 15,6 C 0,0 km/h (0 Bft)
13.07.2014 22:35 15,2 C 24,4 C 16,1 C 15,6 C 15,6 C 0,4 C 88 % 90 % 0 % 1006,3 hPa 0,0 l/m 0,0 km/h (0 Bft) S-SO 157 0 min 0,0 UV-I 13,2 C 15,6 C 0,0 km/h (0 Bft)
13.07.2014 22:40 15,2 C 24,4 C 16,1 C 15,5 C 15,5 C 0,3 C 88 % 90 % 0 % 1006,3 hPa 0,0 l/m 0,0 km/h (0 Bft) O-SO 112 0 min 0,0 UV-I 13,2 C 15,5 C 0,0 km/h (0 Bft)
13.07.2014 22:45 15,2 C 24,4 C 16,0 C 15,4 C 15,4 C 0,2 C 88 % 90 % 0 % 1006,3 hPa 0,0 l/m 0,0 km/h (0 Bft) O-SO 112 0 min 0,0 UV-I 13,2 C 15,4 C 0,0 km/h (0 Bft)
13.07.2014 22:50 15,1 C 24,4 C 15,9 C 15,2 C 15,2 C 0,1 C 88 % 90 % 0 % 1006,3 hPa 0,0 l/m 0,0 km/h (0 Bft) O-NO 67 0 min 0,0 UV-I 13,1 C 15,2 C 0,0 km/h (0 Bft)
13.07.2014 22:55 15,0 C 24,4 C 15,8 C 15,1 C 15,1 C 0,1 C 88 % 90 % 0 % 1006,1 hPa 0,0 l/m 0,0 km/h (0 Bft) O-NO 67 0 min 0,0 UV-I 13,0 C 15,1 C 0,0 km/h (0 Bft)
13.07.2014 23:00 14,9 C 24,4 C 15,7 C 14,9 C 14,9 C 0,0 C 88 % 90 % 0 % 1006,1 hPa 0,0 l/m 0,0 km/h (0 Bft) S 180 0 min 0,0 UV-I 12,9 C 14,9 C 0,0 km/h (0 Bft)
13.07.2014 23:05 14,8 C 24,4 C 15,6 C 14,9 C 14,9 C 0,1 C 88 % 90 % 0 % 1006,1 hPa 0,0 l/m 0,0 km/h (0 Bft) SW 225 0 min 0,0 UV-I 12,8 C 14,9 C 0,0 km/h (0 Bft)
13.07.2014 23:10 14,8 C 24,4 C 15,7 C 14,8 C 14,8 C 0,0 C 88 % 90 % 0 % 1006,1 hPa 0,0 l/m 0,0 km/h (0 Bft) W-SW 247 0 min 0,0 UV-I 12,8 C 14,8 C 0,0 km/h (0 Bft)
13.07.2014 23:15 14,7 C 24,4 C 15,7 C 14,8 C 14,8 C 0,1 C 88 % 90 % 0 % 1006,0 hPa 0,0 l/m 0,0 km/h (0 Bft) S-SO 157 0 min 0,0 UV-I 12,7 C 14,8 C 0,0 km/h (0 Bft)
13.07.2014 23:20 14,6 C 24,4 C 15,6 C 14,9 C 14,9 C 0,3 C 88 % 90 % 0 % 1006,0 hPa 0,0 l/m 0,0 km/h (0 Bft) S-SO 157 0 min 0,0 UV-I 12,6 C 14,9 C 0,0 km/h (0 Bft)
13.07.2014 23:25 14,7 C 24,4 C 15,7 C 14,9 C 14,9 C 0,2 C 88 % 90 % 0 % 1006,0 hPa 0,0 l/m 0,0 km/h (0 Bft) W-SW 247 0 min 0,0 UV-I 12,7 C 14,9 C 0,0 km/h (0 Bft)
13.07.2014 23:30 14,5 C 24,4 C 15,6 C 14,9 C 14,9 C 0,4 C 88 % 90 % 0 % 1006,0 hPa 0,0 l/m 0,0 km/h (0 Bft) W-SW 247 0 min 0,0 UV-I 12,5 C 14,9 C 0,0 km/h (0 Bft)
13.07.2014 23:35 14,5 C 24,4 C 15,6 C 14,9 C 14,9 C 0,4 C 88 % 90 % 0 % 1006,4 hPa 0,0 l/m 0,0 km/h (0 Bft) SO 135 0 min 0,0 UV-I 12,5 C 14,9 C 0,0 km/h (0 Bft)
13.07.2014 23:40 14,5 C 24,3 C 15,5 C 14,9 C 14,9 C 0,4 C 89 % 90 % 0 % 1006,4 hPa 0,0 l/m 0,0 km/h (0 Bft) O-SO 112 0 min 0,0 UV-I 12,7 C 14,9 C 0,0 km/h (0 Bft)
13.07.2014 23:45 14,5 C 24,3 C 15,5 C 14,9 C 14,9 C 0,4 C 89 % 90 % 0 % 1006,4 hPa 0,0 l/m 0,0 km/h (0 Bft) NO 45 0 min 0,0 UV-I 12,7 C 14,9 C 0,0 km/h (0 Bft)
13.07.2014 23:50 14,4 C 24,3 C 15,5 C 14,9 C 14,9 C 0,5 C 89 % 90 % 0 % 1006,4 hPa 0,0 l/m 0,0 km/h (0 Bft) S-SW 202 0 min 0,0 UV-I 12,6 C 14,9 C 0,0 km/h (0 Bft)
13.07.2014 23:55 14,4 C 24,3 C 15,5 C 14,8 C 14,8 C 0,4 C 89 % 90 % 0 % 1006,2 hPa 0,0 l/m 0,0 km/h (0 Bft) SW 225 0 min 0,0 UV-I 12,6 C 14,8 C 0,0 km/h (0 Bft)
_ Min-Zeit 06:30 09:00 05:05 04:50 04:50 00:00 12:55 16:25 00:00 23:15 - 00:00 - - - 00:00 05:00 04:50 00:00
Minimum _ 9,0 C 22,8 C 10,6 C 9,2 C 9,2 C 0,0 C 53 % 64 % 0 % 1006,0 hPa - 0,0 km/h (0 Bft) - - - 0,0 UV-I 7,5 C 9,2 C 0,0 km/h (0 Bft)
_ Max-Zeit 16:20 20:30 16:20 12:10 12:10 08:35 07:40 05:15 07:10 00:00 20:10 17:45 - - 05:25 00:00 15:15 12:10 15:50
Maximum _ 23,9 C 24,4 C 22,7 C 29,7 C 29,7 C 12,6 C 93 % 90 % 100 % 1009,6 hPa 0,7 l/m 4,5 km/h
S (1 Bft)
- - 5 min 0,0 UV-I 15,9 C 29,7 C 14,3 km/h
S (3 Bft)
Durchschnitt _ 16,3 C 23,6 C 16,3 C 18,3 C 18,3 C 2,1 C 78 % 82 % 39 % 1007,8 hPa #0,7 l/m 0,8 km/h (0 Bft) W-SW - #7:05 h 0,0 UV-I 12,2 C 18,3 C 1,2 km/h (1 Bft)
2014 www.wetterstation-wechselburg.de